レイキャビク/ケフラヴィーク の空港の天気 - METARとTAF

ケフラヴィーク国際空港 ( BIKF / KEF ) - アイスランド ケプラヴィーク
飛行場実況気象(Metar)
観測時間10/25 19:00 GMT (10/25 19:00 UTC)
風向・風速北北東 5m/s
視程10km以上
天気現象
少しの雲 雲底高度 610m
全天の4割程度の雲 雲底高度 1830m
全天の8割程度の雲 雲底高度 6100m
気温6℃
湿度87%
気圧991hPa
METARBIKF 251900Z 03009KT 9999 FEW020 SCT060 BKN200 06/04 Q0991
過去の天気等 Google飛行場航空写真 Wunderground天気予報

過去48時間のMETAR

飛行場予報(TAF)
発表時間: 10/25 16:04 GMT (10/25 16:04 UTC)
予報対象時間: 25日18時 GMT ~ 26日18時 GMT
風向・風速北北東 4m/s
視程10km以上
全天の4割程度の雲 雲底高度 760m
全天の8割程度の雲 雲底高度 910m
26日15時 GMT ~ 26日17時 GMT に徐々に
風向・風速東 6m/s
天気現象弱い雨
全天の4割程度の雲 雲底高度 490m
全天の8割程度の雲 雲底高度 760m
TAF BIKF 251604Z 2518/2618 03008KT 9999 SCT025 BKN030 TX07/2615Z TN02/2603Z
BECMG 2615/2617 09012KT -RA SCT016 BKN025